MX-0035 weather

Punta Prieta Airstrip
Punta Prieta, Baja California, Mexico

Public forecast

Using degrees Celsius for public forecast. Weather courtesy of forecast.io.

Closest aviation weather report (METAR) to Punta Prieta Airstrip

Closest report is General Ignacio P. Garcia International Airport, 163.3 nm (302.4 km) E. Retrieved 2020/07/03 21:40 UTC (1 hour ago):

MMHO 032140Z 24011KT 10SM SKC 43/13 A2984 RMK DSNT TCU 1ST AND 2ND QUAD

Closest aviation forecast (TAF) to Punta Prieta Airstrip

Closest forecast is General Ignacio P. Garcia International Airport, 163.3 nm (302.4 km) E. Retrieved 2020/07/03 18:42 UTC (4 hours ago):

TAF MMHO 031641Z 0318/0418 28005KT P6SM SKC BECMG 0320/0321 27012KT FM040200 25008KT P6SM SKC BECMG 0405/0406 16008KT FM041200 00000KT P6SM SCT220